Flight Track Log - Related Links

Times and Time Zones

All times are in EDT time to prevent confusion due to time zone crossing. See the TAM3701 flight status page for this flight to view local times or setup timezone preferences in your user account.

Time Position Orientation Groundspeed Altitude Reporting Facility
EDT Latitude Longitude Course Direction KTS MPH feet Rate Location/Type
Sat 08:57:00 AM -17.7605 -47.6163 172° South  Level Estimated
Sat 08:58:00 AM -17.8468 -47.6026 171° South  Level Estimated
Sat 08:59:00 AM -17.9450 -47.5871 171° South  Level Estimated
Sat 09:00:00 AM -18.0433 -47.5716 171° South  Level Estimated
Sat 09:01:00 AM -18.1416 -47.5560 171° South  Level Estimated
Sat 09:02:00 AM -18.2398 -47.5404 171° South  Level Estimated
Sat 09:03:00 AM -18.3381 -47.5248 171° South  Level Estimated
Sat 09:04:00 AM -18.4364 -47.5092 171° South  Level Estimated
Sat 09:05:00 AM -18.5346 -47.4936 171° South  Level Estimated
Sat 09:06:00 AM -18.6329 -47.4779 171° South  Level Estimated
Sat 09:07:00 AM -18.7311 -47.4622 171° South  Level Estimated
Sat 09:08:00 AM -18.8294 -47.4466 171° South  Level Estimated
Sat 09:09:00 AM -18.9277 -47.4309 171° South  Level Estimated
Sat 09:10:00 AM -19.0259 -47.4151 171° South  Level Estimated
Sat 09:11:00 AM -19.1242 -47.3994 171° South  Level Estimated
Sat 09:12:00 AM -19.2224 -47.3836 171° South  Level Estimated
Sat 09:13:00 AM -19.3207 -47.3678 171° South  Level Estimated
Sat 09:14:00 AM -19.4189 -47.3520 171° South  Level Estimated
Sat 09:15:00 AM -19.5172 -47.3362 171° South  Level Estimated
Sat 09:16:00 AM -19.6154 -47.3204 171° South  Level Estimated
Sat 09:17:00 AM -19.7137 -47.3045 171° South  Level Estimated
Sat 09:18:00 AM -19.8119 -47.2886 171° South  Level Estimated
Sat 09:19:00 AM -19.9101 -47.2727 171° South  Level Estimated
Sat 09:20:00 AM -20.0084 -47.2568 171° South  Level Estimated
Sat 09:21:00 AM -20.1066 -47.2409 171° South  Level Estimated
Sat 09:22:00 AM -20.2049 -47.2249 171° South  Level Estimated
Sat 09:23:00 AM -20.3031 -47.2089 171° South  Level Estimated
Sat 09:24:00 AM -20.4013 -47.1929 171° South  Level Estimated
Sat 09:25:00 AM -20.4996 -47.1769 171° South  Level Estimated
Sat 09:26:00 AM -20.5978 -47.1609 171° South  Level Estimated
Sat 09:27:00 AM -20.6960 -47.1448 171° South  Level Estimated
Sat 09:28:00 AM -20.7943 -47.1287 171° South  Level Estimated
Sat 09:29:00 AM -20.8925 -47.1126 171° South  Level Estimated
Sat 09:30:00 AM -20.9907 -47.0965 171° South  Level Estimated
Sat 09:31:00 AM -21.0889 -47.0804 171° South  Level Estimated
Sat 09:32:00 AM -21.1872 -47.0642 171° South  Level Estimated
Sat 09:33:00 AM -21.2854 -47.0480 171° South  Level Estimated
Sat 09:34:00 AM -21.3836 -47.0318 171° South  Level Estimated
Sat 09:35:00 AM -21.4818 -47.0156 171° South  Level Estimated
Sat 09:36:00 AM -21.5800 -46.9993 171° South  Level Estimated
Sat 09:37:00 AM -21.6783 -46.9831 171° South  Level Estimated
Sat 09:38:00 AM -21.7765 -46.9668 171° South  Level Estimated
Sat 09:39:00 AM -21.8747 -46.9504 171° South  Level Estimated
Sat 09:40:00 AM -21.9729 -46.9341 171° South  Level Estimated
Sat 09:41:00 AM -22.0711 -46.9177 171° South  Level Estimated
Sat 09:42:00 AM -22.1693 -46.9013 171° South  Level Estimated
Sat 09:43:00 AM -22.2675 -46.8849 171° South  Level Estimated
Sat 09:44:00 AM -22.3657 -46.8685 171° South  Level Estimated
Sat 09:45:00 AM -22.4639 -46.8521 171° South  Level Estimated
Sat 09:46:00 AM -22.5621 -46.8356 171° South  Level Estimated
Sat 09:47:00 AM -22.6603 -46.8191 171° South  Level Estimated
Sat 09:48:00 AM -22.7585 -46.8025 171° South  Level Estimated
Sat 09:49:00 AM -22.8567 -46.7860 171° South  Level Estimated
Sat 09:50:00 AM -22.9549 -46.7694 171° South  Level Estimated
Sat 09:51:00 AM -23.0531 -46.7528 171° South  Level Estimated
Sat 09:52:00 AM -23.1513 -46.7362 171° South  Level Estimated
Sat 09:53:00 AM -23.2495 -46.7196 171° South  Level Estimated
Sat 09:54:00 AM -23.3477 -46.7029 171° South  Level Estimated
Sat 09:55:00 AM -23.4459 -46.6862 171° South  Level Estimated
Sat 09:56:00 AM -23.5440 -46.6695 171° South  Level Estimated
Sat 09:57:00 AM -23.6267 -46.6554 171° South  Level Estimated
Sat 09:58:00 AM -23.6267 -46.6554 114° Southeast  Level Estimated
Sat 09:59:00 AM -23.6267 -46.6554 114° Southeast  Level Estimated
Sat 10:00:00 AM -23.6267 -46.6554 114° Southeast  Level Estimated
Sat 10:01:00 AM -23.6267 -46.6554 114° Southeast  Level Estimated
Sat 10:02:00 AM -23.6267 -46.6554 114° Southeast  Level Estimated
Sat 10:03:00 AM -23.6267 -46.6554 114° Southeast  Level Estimated
Sat 10:04:00 AM -23.6267 -46.6554 114° Southeast  Level Estimated
Sat 10:05:00 AM -23.6267 -46.6554 114° Southeast  Level Estimated
Sat 10:06:00 AM -23.6267 -46.6554 114° Southeast  Level Estimated
Sat 10:07:00 AM -23.6267 -46.6554 114° Southeast  Level Estimated
Sat 10:08:00 AM -23.6267 -46.6554 114° Southeast  Level Estimated
Sat 10:09:00 AM -23.6267 -46.6554 114° Southeast  Level Estimated
Sat 10:10:00 AM -23.6267 -46.6554 114° Southeast  Level Estimated

Login

Don't have an account? Register now (free) for customized features, flight alerts, and more!